createdAt,value
2023-01-21T00:01:20.109Z,2.83
2023-01-21T00:03:48.622Z,3.24
2023-01-21T00:06:16.763Z,3.00
2023-01-21T00:08:45.246Z,3.28
2023-01-21T00:11:15.411Z,3.39
2023-01-21T00:13:44.784Z,3.35
2023-01-21T00:16:13.686Z,2.70
2023-01-21T00:18:43.409Z,2.59
2023-01-21T00:21:11.614Z,2.81
2023-01-21T00:23:39.971Z,2.81
2023-01-21T00:26:11.521Z,2.94
2023-01-21T00:28:41.781Z,2.75
2023-01-21T00:31:11.728Z,2.40
2023-01-21T00:33:40.145Z,2.59
2023-01-21T00:36:11.745Z,2.73
2023-01-21T00:38:40.025Z,2.13
2023-01-21T00:41:10.297Z,2.62
2023-01-21T00:43:39.483Z,2.52
2023-01-21T00:46:07.815Z,2.66
2023-01-21T00:48:36.492Z,2.52
2023-01-21T00:51:05.096Z,2.13
2023-01-21T00:53:36.437Z,2.58
2023-01-21T00:56:06.583Z,2.02
2023-01-21T00:58:35.139Z,2.21
2023-01-21T01:01:03.775Z,2.14
2023-01-21T01:03:32.050Z,2.13
2023-01-21T01:06:04.230Z,1.89
2023-01-21T01:08:34.434Z,1.71
2023-01-21T01:11:02.641Z,1.72
2023-01-21T01:13:30.939Z,1.69
2023-01-21T01:16:00.263Z,1.83
2023-01-21T01:18:29.637Z,1.58
2023-01-21T01:20:58.281Z,1.77
2023-01-21T01:23:26.753Z,1.52
2023-01-21T01:26:01.714Z,1.62
2023-01-21T01:28:30.639Z,1.31
2023-01-21T01:30:59.211Z,1.49
2023-01-21T01:33:27.946Z,1.43
2023-01-21T01:35:56.128Z,1.00
2023-01-21T01:38:24.361Z,1.34
2023-01-21T01:40:53.797Z,1.14
2023-01-21T01:43:25.158Z,1.18
2023-01-21T01:45:54.211Z,1.35
2023-01-21T01:48:27.614Z,1.16
2023-01-21T01:50:59.235Z,1.37
2023-01-21T01:53:28.164Z,1.12
2023-01-21T01:55:56.864Z,1.02
2023-01-21T01:58:26.538Z,1.14
2023-01-21T02:00:54.808Z,0.97
2023-01-21T02:03:41.335Z,0.88
2023-01-21T02:06:09.567Z,0.97
2023-01-21T02:08:37.948Z,0.84
2023-01-21T02:11:12.596Z,1.06
2023-01-21T02:13:45.974Z,1.18
2023-01-21T02:16:33.456Z,1.31
2023-01-21T02:19:19.584Z,1.35
2023-01-21T02:22:01.284Z,1.34
2023-01-21T02:25:01.955Z,1.82
2023-01-21T02:27:43.199Z,1.74
2023-01-21T02:30:42.774Z,2.07
2023-01-21T02:33:40.091Z,2.22
2023-01-21T02:36:24.553Z,1.96
2023-01-21T02:39:00.114Z,1.72
2023-01-21T02:41:35.096Z,1.78
2023-01-21T02:44:11.478Z,1.66
2023-01-21T02:46:46.137Z,1.54
2023-01-21T02:49:22.597Z,1.72
2023-01-21T02:51:51.121Z,1.24
2023-01-21T02:54:53.797Z,1.30
2023-01-21T02:57:34.931Z,1.40
2023-01-21T03:00:07.681Z,1.38
2023-01-21T03:02:55.017Z,1.74
2023-01-21T03:05:30.454Z,1.81
2023-01-21T03:08:07.012Z,1.53
2023-01-21T03:10:41.554Z,1.40
2023-01-21T03:13:36.672Z,1.29
2023-01-21T03:16:25.544Z,1.25
2023-01-21T03:18:56.055Z,0.99
2023-01-21T03:21:28.559Z,1.04
2023-01-21T03:23:59.048Z,1.13
2023-01-21T03:26:32.212Z,1.04
2023-01-21T03:29:04.285Z,1.00
2023-01-21T03:31:35.062Z,1.12
2023-01-21T03:34:08.253Z,0.80
2023-01-21T03:36:42.094Z,0.79
2023-01-21T03:39:17.932Z,0.79
2023-01-21T03:41:46.267Z,0.70
2023-01-21T03:44:14.386Z,0.92
2023-01-21T03:46:50.751Z,0.77
2023-01-21T03:49:23.915Z,0.66
2023-01-21T03:51:56.677Z,0.82
2023-01-21T03:54:25.163Z,1.06
2023-01-21T03:56:53.238Z,0.88
2023-01-21T03:59:21.328Z,0.73
2023-01-21T04:01:49.562Z,0.69
2023-01-21T04:04:17.637Z,0.98
2023-01-21T04:06:45.810Z,0.95
2023-01-21T04:09:15.337Z,0.84
2023-01-21T04:11:43.530Z,0.82
2023-01-21T04:14:11.549Z,0.63
2023-01-21T04:16:39.741Z,0.69
2023-01-21T04:19:07.905Z,0.70
2023-01-21T04:21:35.981Z,0.56
2023-01-21T04:24:04.073Z,0.63
2023-01-21T04:26:33.561Z,0.54
2023-01-21T04:29:01.661Z,0.43
2023-01-21T04:31:29.841Z,0.42
2023-01-21T04:33:57.881Z,0.34
2023-01-21T04:36:26.275Z,0.49
2023-01-21T04:38:54.361Z,0.26
2023-01-21T04:41:25.169Z,0.60
2023-01-21T04:43:55.089Z,0.24
2023-01-21T04:46:23.489Z,0.59
2023-01-21T04:48:51.609Z,0.39
2023-01-21T04:51:20.018Z,0.38
2023-01-21T04:53:49.999Z,0.38
2023-01-21T04:56:18.987Z,0.53
2023-01-21T04:58:47.130Z,0.38
2023-01-21T05:01:16.633Z,0.28
2023-01-21T05:03:44.885Z,0.34
2023-01-21T05:06:12.938Z,0.36
2023-01-21T05:08:41.100Z,0.15
2023-01-21T05:11:09.892Z,0.40
2023-01-21T05:13:38.046Z,0.09
2023-01-21T05:16:08.493Z,0.34
2023-01-21T05:18:38.572Z,0.45
2023-01-21T05:21:07.285Z,0.35
2023-01-21T05:23:35.452Z,0.39
2023-01-21T05:26:03.626Z,0.43
2023-01-21T05:28:31.727Z,0.36
2023-01-21T05:31:02.494Z,0.49
2023-01-21T05:33:32.469Z,0.43
2023-01-21T05:36:03.166Z,0.40
2023-01-21T05:38:31.857Z,0.39
2023-01-21T05:41:00.398Z,0.42
2023-01-21T05:43:29.031Z,0.38
2023-01-21T05:45:57.614Z,0.38
2023-01-21T05:48:26.220Z,0.47
2023-01-21T05:50:54.972Z,0.31
2023-01-21T05:53:25.501Z,0.25
2023-01-21T05:55:54.286Z,0.37
2023-01-21T05:58:23.500Z,0.38
2023-01-21T06:00:52.183Z,0.38
2023-01-21T06:03:20.444Z,0.13
2023-01-21T06:05:50.809Z,0.24
2023-01-21T06:08:19.213Z,0.57
2023-01-21T06:10:48.686Z,0.35
2023-01-21T06:13:17.299Z,0.64
2023-01-21T06:15:45.445Z,0.25
2023-01-21T06:18:13.585Z,0.32
2023-01-21T06:20:41.665Z,0.35
2023-01-21T06:23:09.807Z,0.52
2023-01-21T06:25:37.913Z,0.36
2023-01-21T06:28:08.093Z,0.43
2023-01-21T06:30:36.268Z,0.48
2023-01-21T06:33:04.439Z,0.48
2023-01-21T06:35:32.662Z,0.36
2023-01-21T06:38:00.871Z,0.57
2023-01-21T06:40:28.962Z,0.59
2023-01-21T06:42:57.074Z,0.43
2023-01-21T06:45:26.493Z,0.52
2023-01-21T06:47:54.732Z,0.66
2023-01-21T06:50:22.842Z,0.56
2023-01-21T06:52:51.094Z,0.55
2023-01-21T06:55:19.361Z,0.91
2023-01-21T06:57:47.487Z,0.67
2023-01-21T07:00:16.551Z,0.65
2023-01-21T07:02:46.504Z,0.82
2023-01-21T07:05:16.062Z,0.61
2023-01-21T07:07:44.514Z,0.99
2023-01-21T07:10:13.032Z,0.92
2023-01-21T07:12:41.099Z,1.14
2023-01-21T07:15:10.357Z,1.10
2023-01-21T07:17:38.484Z,0.84
2023-01-21T07:20:12.335Z,1.33
2023-01-21T07:22:40.821Z,1.01
2023-01-21T07:25:09.723Z,1.07
2023-01-21T07:27:37.795Z,1.18
2023-01-21T07:30:07.429Z,0.82
2023-01-21T07:32:35.657Z,0.91
2023-01-21T07:35:03.747Z,1.29
2023-01-21T07:37:33.268Z,1.28
2023-01-21T07:40:01.385Z,1.50
2023-01-21T07:42:29.393Z,0.82
2023-01-21T07:44:59.590Z,1.63
2023-01-21T07:47:27.741Z,1.58
2023-01-21T07:49:55.798Z,1.44
2023-01-21T07:52:23.965Z,1.20
2023-01-21T07:54:53.428Z,1.61
2023-01-21T07:57:21.546Z,1.30
2023-01-21T07:59:49.639Z,1.26
2023-01-21T08:02:17.924Z,1.81
2023-01-21T08:04:46.062Z,2.39
2023-01-21T08:07:14.284Z,1.96
2023-01-21T08:09:42.497Z,2.61
2023-01-21T08:12:12.186Z,2.60
2023-01-21T08:14:40.308Z,2.33
2023-01-21T08:17:08.400Z,2.64
2023-01-21T08:19:36.551Z,2.78
2023-01-21T08:22:04.648Z,2.73
2023-01-21T08:24:32.874Z,2.89
2023-01-21T08:27:01.584Z,2.48
2023-01-21T08:29:31.464Z,2.52
2023-01-21T08:31:59.883Z,2.24
2023-01-21T08:34:28.071Z,2.21
2023-01-21T08:36:56.198Z,2.46
2023-01-21T08:39:24.354Z,2.72
2023-01-21T08:41:52.508Z,2.45
2023-01-21T08:44:20.748Z,2.48
2023-01-21T08:46:50.595Z,2.14
2023-01-21T08:49:18.684Z,2.93
2023-01-21T08:51:47.105Z,2.35
2023-01-21T08:54:15.285Z,2.32
2023-01-21T08:56:43.331Z,2.48
2023-01-21T08:59:11.625Z,2.38
2023-01-21T09:01:41.143Z,2.54
2023-01-21T09:04:11.293Z,2.50
2023-01-21T09:06:39.411Z,2.60
2023-01-21T09:09:07.567Z,2.11
2023-01-21T09:11:35.720Z,2.02
2023-01-21T09:14:04.444Z,2.12
2023-01-21T09:16:32.919Z,2.03
2023-01-21T09:19:01.664Z,1.89
2023-01-21T09:21:31.559Z,2.14
2023-01-21T09:23:59.720Z,2.70
2023-01-21T09:26:28.012Z,3.25
2023-01-21T09:28:57.749Z,3.16
2023-01-21T09:31:27.883Z,2.60
2023-01-21T09:33:58.137Z,2.97
2023-01-21T09:36:28.674Z,3.03
2023-01-21T09:38:58.759Z,2.71
2023-01-21T09:41:30.733Z,2.02
2023-01-21T09:44:20.211Z,2.31
2023-01-21T09:46:54.811Z,2.92
2023-01-21T09:49:26.277Z,2.89
2023-01-21T09:52:02.463Z,3.00
2023-01-21T09:54:34.001Z,3.20
2023-01-21T09:57:15.134Z,3.01
2023-01-21T09:59:53.475Z,3.34
2023-01-21T10:02:31.188Z,3.32
2023-01-21T10:05:18.384Z,3.30
2023-01-21T10:07:54.708Z,3.33
2023-01-21T10:10:30.964Z,3.88
2023-01-21T10:13:15.534Z,3.73
2023-01-21T10:15:55.398Z,3.41
2023-01-21T10:18:30.716Z,3.21
2023-01-21T10:21:04.990Z,3.30
2023-01-21T10:23:38.940Z,2.76
2023-01-21T10:26:10.601Z,2.87
2023-01-21T10:28:42.044Z,2.65
2023-01-21T10:31:19.561Z,2.48
2023-01-21T10:33:47.906Z,2.65
2023-01-21T10:36:51.716Z,2.53
2023-01-21T10:39:30.148Z,3.09
2023-01-21T10:42:09.454Z,2.85
2023-01-21T10:44:47.160Z,3.04
2023-01-21T10:47:26.372Z,2.74
2023-01-21T10:50:01.232Z,2.83
2023-01-21T10:52:38.607Z,3.40
2023-01-21T10:55:20.315Z,3.08
2023-01-21T10:57:58.579Z,3.33
2023-01-21T11:00:29.721Z,3.16
2023-01-21T11:03:01.427Z,3.00
2023-01-21T11:05:31.935Z,3.35
2023-01-21T11:08:00.829Z,3.39
2023-01-21T11:10:29.412Z,3.55
2023-01-21T11:12:58.958Z,3.84
2023-01-21T11:15:31.562Z,3.35
2023-01-21T11:17:59.990Z,3.42
2023-01-21T11:20:36.570Z,3.86
2023-01-21T11:23:06.913Z,3.85
2023-01-21T11:25:41.139Z,3.57
2023-01-21T11:28:23.998Z,3.56
2023-01-21T11:31:03.994Z,4.21
2023-01-21T11:33:32.461Z,3.92
2023-01-21T11:36:11.691Z,3.48
2023-01-21T11:38:40.313Z,4.11
2023-01-21T11:41:18.622Z,3.84
2023-01-21T11:43:51.276Z,3.68
2023-01-21T11:46:27.890Z,4.15
2023-01-21T11:48:57.666Z,4.07
2023-01-21T11:51:25.873Z,4.04
2023-01-21T11:54:14.003Z,4.19
2023-01-21T11:56:54.508Z,4.07
2023-01-21T11:59:28.024Z,4.35
2023-01-21T12:02:03.859Z,4.83
2023-01-21T12:04:33.843Z,4.39
2023-01-21T12:07:02.411Z,4.21
2023-01-21T12:09:30.924Z,4.10
2023-01-21T12:12:16.865Z,4.26
2023-01-21T12:14:53.294Z,4.08
2023-01-21T12:17:33.374Z,4.00
2023-01-21T12:20:19.484Z,3.87
2023-01-21T12:22:59.633Z,3.53
2023-01-21T12:25:40.868Z,4.21
2023-01-21T12:28:48.567Z,4.15
2023-01-21T12:31:29.597Z,4.06
2023-01-21T12:34:05.541Z,4.65
2023-01-21T12:36:40.280Z,4.46
2023-01-21T12:39:20.892Z,4.48
2023-01-21T12:41:58.142Z,4.66
2023-01-21T12:44:34.923Z,4.78
2023-01-21T12:47:12.679Z,4.60
2023-01-21T12:50:15.367Z,4.63
2023-01-21T12:52:53.757Z,5.19
2023-01-21T12:55:25.707Z,5.12
2023-01-21T12:58:02.536Z,5.29
2023-01-21T13:00:34.449Z,5.27
2023-01-21T13:03:17.754Z,5.39
2023-01-21T13:05:53.761Z,5.43
2023-01-21T13:08:51.176Z,5.22
2023-01-21T13:11:21.547Z,5.32
2023-01-21T13:13:57.633Z,5.46
2023-01-21T13:16:27.403Z,5.45
2023-01-21T13:18:57.519Z,5.59
2023-01-21T13:21:37.672Z,5.47
2023-01-21T13:24:16.234Z,5.28
2023-01-21T13:26:54.280Z,5.21
2023-01-21T13:29:33.182Z,4.97
2023-01-21T13:32:25.418Z,5.07
2023-01-21T13:35:08.892Z,4.56
2023-01-21T13:37:43.267Z,4.59
2023-01-21T13:40:26.438Z,4.80
2023-01-21T13:43:06.851Z,4.82
2023-01-21T13:45:45.729Z,4.65
2023-01-21T13:48:34.390Z,4.80
2023-01-21T13:51:19.806Z,4.76
2023-01-21T13:54:04.583Z,4.88
2023-01-21T13:56:48.412Z,4.23
2023-01-21T13:59:22.629Z,4.07
2023-01-21T14:01:55.677Z,4.05
2023-01-21T14:04:30.482Z,3.90
2023-01-21T14:07:05.968Z,4.25
2023-01-21T14:09:40.039Z,4.26
2023-01-21T14:12:16.869Z,3.85
2023-01-21T14:15:09.427Z,3.85
2023-01-21T14:18:06.108Z,4.23
2023-01-21T14:20:59.884Z,4.15
2023-01-21T14:23:55.659Z,3.76
2023-01-21T14:26:43.201Z,4.05
2023-01-21T14:29:20.157Z,3.77
2023-01-21T14:31:52.747Z,3.90
2023-01-21T14:34:25.420Z,4.22
2023-01-21T14:37:03.550Z,4.26
2023-01-21T14:39:43.211Z,4.08
2023-01-21T14:42:13.494Z,4.13
2023-01-21T14:44:45.889Z,4.25
2023-01-21T14:47:23.588Z,4.04
2023-01-21T14:49:53.919Z,3.97
2023-01-21T14:52:29.661Z,3.98
2023-01-21T14:55:00.929Z,3.55
2023-01-21T14:57:32.420Z,3.88
2023-01-21T15:00:13.431Z,4.07
2023-01-21T15:02:44.817Z,4.10
2023-01-21T15:05:19.985Z,4.21
2023-01-21T15:07:51.153Z,4.18
2023-01-21T15:10:22.679Z,4.23
2023-01-21T15:12:55.278Z,4.19
2023-01-21T15:15:31.614Z,4.15
2023-01-21T15:18:24.445Z,4.05
2023-01-21T15:20:57.954Z,4.17
2023-01-21T15:23:39.678Z,3.77
2023-01-21T15:26:32.291Z,3.54
2023-01-21T15:29:25.227Z,3.91
2023-01-21T15:31:54.153Z,3.65
2023-01-21T15:34:23.747Z,3.72
2023-01-21T15:36:58.082Z,3.86
2023-01-21T15:39:33.702Z,3.96
2023-01-21T15:42:17.058Z,4.03
2023-01-21T15:45:06.456Z,3.86
2023-01-21T15:47:52.701Z,3.90
2023-01-21T15:50:23.205Z,3.97
2023-01-21T15:53:05.880Z,4.01
2023-01-21T15:55:55.563Z,3.73
2023-01-21T15:58:39.735Z,4.00
2023-01-21T16:01:17.435Z,3.77
2023-01-21T16:03:58.500Z,3.58
2023-01-21T16:06:38.262Z,3.67
2023-01-21T16:09:08.473Z,3.91
2023-01-21T16:11:53.456Z,3.66
2023-01-21T16:14:43.603Z,3.74
2023-01-21T16:17:21.013Z,3.58
2023-01-21T16:19:53.186Z,3.69
2023-01-21T16:22:26.844Z,4.00
2023-01-21T16:25:01.170Z,4.08
2023-01-21T16:27:31.858Z,4.10
2023-01-21T16:30:03.171Z,3.78
2023-01-21T16:32:32.748Z,4.02
2023-01-21T16:35:01.889Z,4.03
2023-01-21T16:37:31.554Z,4.02
2023-01-21T16:40:28.048Z,4.00
2023-01-21T16:43:12.741Z,4.20
2023-01-21T16:45:50.492Z,4.26
2023-01-21T16:48:23.947Z,4.13
2023-01-21T16:50:53.455Z,4.20
2023-01-21T16:53:23.362Z,4.23
2023-01-21T16:55:53.502Z,4.32
2023-01-21T16:58:32.697Z,4.30
2023-01-21T17:01:06.538Z,4.34
2023-01-21T17:03:34.954Z,4.35
2023-01-21T17:06:21.140Z,4.41
2023-01-21T17:08:54.029Z,4.44
2023-01-21T17:11:23.581Z,4.49
2023-01-21T17:13:53.185Z,4.56
2023-01-21T17:16:28.875Z,4.60
2023-01-21T17:18:59.361Z,4.60
2023-01-21T17:21:38.333Z,4.60
2023-01-21T17:24:17.421Z,4.58
2023-01-21T17:26:49.359Z,4.55
2023-01-21T17:29:21.917Z,4.55
2023-01-21T17:31:58.443Z,4.54
2023-01-21T17:34:28.927Z,4.51
2023-01-21T17:36:57.911Z,4.51
2023-01-21T17:39:57.931Z,4.37
2023-01-21T17:42:40.759Z,3.54
2023-01-21T17:45:19.773Z,3.19
2023-01-21T17:48:12.579Z,2.77
2023-01-21T17:50:47.162Z,2.98
2023-01-21T17:53:22.295Z,2.74
2023-01-21T17:55:59.239Z,2.69
2023-01-21T17:58:46.144Z,3.01
2023-01-21T18:01:14.794Z,3.11
2023-01-21T18:03:44.461Z,3.35
2023-01-21T18:06:18.998Z,3.72
2023-01-21T18:08:47.271Z,3.89
2023-01-21T18:11:16.827Z,4.04
2023-01-21T18:13:45.333Z,4.06
2023-01-21T18:16:13.560Z,3.99
2023-01-21T18:18:42.069Z,3.87
2023-01-21T18:21:18.517Z,4.04
2023-01-21T18:23:46.966Z,4.03
2023-01-21T18:26:27.517Z,3.82
2023-01-21T18:28:55.610Z,3.36
2023-01-21T18:31:24.054Z,3.20
2023-01-21T18:33:52.424Z,3.49
2023-01-21T18:36:22.017Z,3.80
2023-01-21T18:38:50.092Z,4.00
2023-01-21T18:41:18.214Z,4.10
2023-01-21T18:43:46.299Z,4.04
2023-01-21T18:46:16.385Z,4.07
2023-01-21T18:48:44.747Z,4.19
2023-01-21T18:51:14.733Z,4.25
2023-01-21T18:53:44.277Z,4.29
2023-01-21T18:56:15.020Z,4.31
2023-01-21T18:58:43.529Z,4.26
2023-01-21T19:01:22.664Z,4.33
2023-01-21T19:03:54.814Z,4.34
2023-01-21T19:06:24.818Z,4.38
2023-01-21T19:08:55.264Z,4.29
2023-01-21T19:11:23.646Z,4.37
2023-01-21T19:13:51.716Z,4.25
2023-01-21T19:16:21.644Z,4.32
2023-01-21T19:18:50.001Z,4.35
2023-01-21T19:21:18.112Z,4.40
2023-01-21T19:23:46.372Z,4.38
2023-01-21T19:26:15.876Z,4.42
2023-01-21T19:28:44.121Z,4.46
2023-01-21T19:31:12.321Z,4.50
2023-01-21T19:33:42.912Z,4.52
2023-01-21T19:36:16.658Z,4.47
2023-01-21T19:38:51.586Z,4.40
2023-01-21T19:41:21.171Z,4.41
2023-01-21T19:43:49.259Z,4.28
2023-01-21T19:46:17.922Z,4.22
2023-01-21T19:48:49.986Z,4.25
2023-01-21T19:51:18.213Z,4.29
2023-01-21T19:53:46.493Z,4.29
2023-01-21T19:56:17.125Z,4.20
2023-01-21T19:58:46.718Z,4.32
2023-01-21T20:01:14.881Z,4.35
2023-01-21T20:03:58.692Z,4.38
2023-01-21T20:06:31.256Z,4.39
2023-01-21T20:09:00.866Z,4.42
2023-01-21T20:11:28.927Z,4.42
2023-01-21T20:13:58.541Z,4.41
2023-01-21T20:16:27.355Z,4.43
2023-01-21T20:18:56.377Z,4.40
2023-01-21T20:21:24.643Z,4.33
2023-01-21T20:23:52.803Z,4.32
2023-01-21T20:26:26.017Z,4.38
2023-01-21T20:28:54.699Z,4.37
2023-01-21T20:31:24.482Z,4.41
2023-01-21T20:33:52.741Z,4.44
2023-01-21T20:36:23.487Z,4.45
2023-01-21T20:38:52.121Z,4.44
2023-01-21T20:41:20.481Z,4.38
2023-01-21T20:43:48.829Z,4.36
2023-01-21T20:46:19.649Z,4.15
2023-01-21T20:48:50.598Z,4.14
2023-01-21T20:51:19.086Z,4.21
2023-01-21T20:53:47.243Z,4.24
2023-01-21T20:56:19.847Z,4.11
2023-01-21T20:58:48.913Z,4.13
2023-01-21T21:01:19.215Z,4.19
2023-01-21T21:03:48.912Z,4.09
2023-01-21T21:06:19.457Z,4.10
2023-01-21T21:08:48.456Z,4.01
2023-01-21T21:11:17.913Z,4.01
2023-01-21T21:13:48.384Z,3.99
2023-01-21T21:16:23.236Z,3.92
2023-01-21T21:18:53.206Z,4.00
2023-01-21T21:21:23.676Z,3.97
2023-01-21T21:23:52.766Z,4.05
2023-01-21T21:26:23.168Z,4.03
2023-01-21T21:28:54.774Z,3.87
2023-01-21T21:31:24.246Z,3.87
2023-01-21T21:33:53.927Z,3.97
2023-01-21T21:36:24.706Z,3.95
2023-01-21T21:38:55.723Z,3.99
2023-01-21T21:41:43.690Z,3.91
2023-01-21T21:44:13.203Z,4.01
2023-01-21T21:46:59.159Z,3.90
2023-01-21T21:49:29.698Z,3.92
2023-01-21T21:52:00.343Z,3.95
2023-01-21T21:54:28.626Z,3.85
2023-01-21T21:56:56.746Z,3.88
2023-01-21T21:59:24.926Z,3.97
2023-01-21T22:01:53.022Z,3.96
2023-01-21T22:04:23.117Z,4.04
2023-01-21T22:06:52.805Z,4.04
2023-01-21T22:09:20.979Z,3.90
2023-01-21T22:11:49.077Z,4.01
2023-01-21T22:14:18.131Z,4.09
2023-01-21T22:16:46.479Z,4.16
2023-01-21T22:19:14.824Z,3.99
2023-01-21T22:21:43.007Z,4.01
2023-01-21T22:24:12.902Z,4.05
2023-01-21T22:26:41.045Z,3.96
2023-01-21T22:29:09.287Z,3.99
2023-01-21T22:31:37.607Z,3.96
2023-01-21T22:34:06.372Z,3.88
2023-01-21T22:36:34.694Z,3.94
2023-01-21T22:39:03.143Z,3.99
2023-01-21T22:41:32.935Z,3.92
2023-01-21T22:44:01.064Z,3.84
2023-01-21T22:46:31.521Z,3.89
2023-01-21T22:48:59.769Z,3.94
2023-01-21T22:51:28.733Z,3.92
2023-01-21T22:53:57.043Z,3.83
2023-01-21T22:56:44.852Z,3.78
2023-01-21T22:59:16.032Z,3.65
2023-01-21T23:01:44.252Z,3.69
2023-01-21T23:04:12.422Z,3.64
2023-01-21T23:06:40.621Z,3.74
2023-01-21T23:09:11.294Z,3.72
2023-01-21T23:11:40.044Z,3.76
2023-01-21T23:14:09.601Z,3.69
2023-01-21T23:16:39.483Z,3.78
2023-01-21T23:19:07.670Z,3.80
2023-01-21T23:21:37.669Z,3.80
2023-01-21T23:24:06.361Z,3.79
2023-01-21T23:26:34.517Z,3.73
2023-01-21T23:29:02.591Z,3.77
2023-01-21T23:31:30.807Z,3.68
2023-01-21T23:34:00.457Z,3.65
2023-01-21T23:36:28.954Z,3.69
2023-01-21T23:38:57.068Z,3.64
2023-01-21T23:41:25.231Z,3.64
2023-01-21T23:43:53.306Z,3.63
2023-01-21T23:46:21.489Z,3.63
2023-01-21T23:48:49.628Z,3.71
2023-01-21T23:51:19.717Z,3.67
2023-01-21T23:53:49.073Z,3.64
2023-01-21T23:56:19.244Z,3.54
2023-01-21T23:58:47.515Z,3.62
